»·PEaware :: N35CF KPMD-KNZY

N35CF :: KPMD-KNZY

FLIGHT INFORMATION

Flight Status: Arrived
Operator: Privately registered:
United States
More flights under this callsign
Pilot: Todd C. (18613)
Aircraft: BEECH AIRCRAFT A90-E90 KING AIR
(BE9L)
More flights by this aircraft type
Origin: KPMD Palmdale AF Plant 42
United States
Destination: KNZY North Island NAS
United States
More flights between these airports :: More routes between these airports
Route: +MZB
File this flight plan on PilotEdge
Remarks:
Altitude:
(Current/Filed)
19,000ft
Speed:
(Current/Filed)
230kts
Departed: 20-Feb-19 02:04 PM
Arrived: 20-Feb-19 03:00 PM
Distance/Time
Traveled:
124nm/0:56
Distance/Time
To Go:
Arrived

Flight Plot

Page will automatically refresh every two minutes.

Flight plan parsing failed; only flown route is shown


Map Options




Map Legend


Flown Route
Filed Route
Departure Airport
Arrival Airport
Navaid (VOR, NDB)
Fix

Horizontal Profiles

Position Reports

Time Latitude Longitude Heading Altitude Ground
Speed
20-Feb-19 13:45 34.638856 -118.067867 269 2490ft 0kts
20-Feb-19 13:46 34.638856 -118.067867 269 2490ft 0kts
20-Feb-19 13:47 34.638856 -118.067867 269 2490ft 0kts
20-Feb-19 13:48 34.638856 -118.067867 269 2490ft 0kts
20-Feb-19 13:49 34.638856 -118.067867 269 2490ft 0kts
20-Feb-19 13:50 34.638856 -118.067867 269 2490ft 0kts
20-Feb-19 13:51 34.638856 -118.067867 269 2490ft 0kts
20-Feb-19 13:52 34.638856 -118.067867 269 2490ft 0kts
20-Feb-19 13:53 34.638856 -118.067867 269 2490ft 0kts
20-Feb-19 13:54 34.638856 -118.067867 269 2490ft 0kts
20-Feb-19 13:55 34.638856 -118.067867 269 2490ft 0kts
20-Feb-19 13:56 34.638856 -118.067867 269 2490ft 0kts
20-Feb-19 13:57 34.638788 -118.069006 267 2490ft 7kts
20-Feb-19 13:58 34.638258 -118.071838 183 2490ft 7kts
20-Feb-19 13:59 34.635884 -118.068726 87 2494ft 34kts
20-Feb-19 14:00 34.638058 -118.061327 143 2490ft 13kts
20-Feb-19 14:01 34.637484 -118.060738 138 2490ft 9kts
20-Feb-19 14:02 34.637081 -118.060605 228 2490ft 0kts
20-Feb-19 14:03 34.626102 -118.077622 230 2991ft 117kts
20-Feb-19 14:04 34.652544 -118.100738 342 4723ft 169kts
20-Feb-19 14:05 34.683966 -118.130062 301 6608ft 137kts
20-Feb-19 14:06 34.709144 -118.164907 303 8349ft 130kts
20-Feb-19 14:07 34.733394 -118.197561 305 9946ft 125kts
20-Feb-19 14:08 34.719518 -118.218948 180 11333ft 155kts
20-Feb-19 14:09 34.676902 -118.217559 197 12644ft 148kts
20-Feb-19 14:10 34.634546 -118.222881 200 13896ft 146kts
20-Feb-19 14:11 34.592129 -118.229493 202 15068ft 147kts
20-Feb-19 14:12 34.549637 -118.236319 204 16159ft 147kts
20-Feb-19 14:13 34.507549 -118.243184 205 17152ft 147kts
20-Feb-19 14:14 34.465395 -118.250038 205 18067ft 148kts
20-Feb-19 14:15 34.423018 -118.256928 205 18894ft 152kts
20-Feb-19 14:16 34.373218 -118.265127 201 18947ft 195kts
20-Feb-19 14:17 34.314505 -118.275098 201 18953ft 213kts
20-Feb-19 14:18 34.252495 -118.286466 201 18957ft 219kts
20-Feb-19 14:19 34.193223 -118.304781 219 18957ft 207kts
20-Feb-19 14:20 34.138063 -118.333730 214 18953ft 212kts
20-Feb-19 14:21 34.081861 -118.360726 214 18955ft 212kts
20-Feb-19 14:22 34.025958 -118.387528 214 18963ft 212kts
20-Feb-19 14:23 33.970152 -118.414168 214 18970ft 212kts
20-Feb-19 14:24 33.908697 -118.393315 154 18977ft 253kts
20-Feb-19 14:25 33.861693 -118.325637 132 18976ft 261kts
20-Feb-19 14:26 33.810264 -118.261778 149 18977ft 255kts
20-Feb-19 14:27 33.759384 -118.198051 130 18978ft 261kts
20-Feb-19 14:28 33.713498 -118.127595 131 18979ft 262kts
20-Feb-19 14:29 33.667437 -118.057856 132 18980ft 262kts
20-Feb-19 14:30 33.619911 -117.986053 131 18518ft 279kts
20-Feb-19 14:31 33.569294 -117.909666 131 17796ft 287kts
20-Feb-19 14:32 33.518512 -117.833265 131 17145ft 287kts
20-Feb-19 14:33 33.467433 -117.756502 132 16521ft 285kts
20-Feb-19 14:34 33.417340 -117.681473 132 15933ft 283kts
20-Feb-19 14:35 33.366316 -117.605071 132 15355ft 282kts
20-Feb-19 14:36 33.316264 -117.530324 132 14808ft 280kts
20-Feb-19 14:37 33.262971 -117.461425 170 14234ft 263kts
20-Feb-19 14:38 33.192236 -117.444910 160 13702ft 266kts
20-Feb-19 14:39 33.124225 -117.407055 163 13214ft 263kts
20-Feb-19 14:41 33.056412 -117.370890 162 12969ft 254kts
20-Feb-19 14:42 32.991557 -117.336249 162 12962ft 247kts
20-Feb-19 14:43 32.927808 -117.302142 162 12970ft 244kts
20-Feb-19 14:44 32.863956 -117.268654 162 12985ft 243kts
20-Feb-19 14:45 32.828585 -117.199645 101 12457ft 274kts
20-Feb-19 14:46 32.813408 -117.108194 101 11165ft 270kts
20-Feb-19 14:47 32.800349 -117.019131 101 9921ft 263kts
20-Feb-19 14:48 32.788735 -116.931625 100 7978ft 260kts
20-Feb-19 14:49 32.777838 -116.851732 119 5800ft 219kts
20-Feb-19 14:50 32.728969 -116.851607 200 4133ft 191kts
20-Feb-19 14:51 32.684902 -116.881820 217 3937ft 174kts
20-Feb-19 14:52 32.673219 -116.936332 296 3759ft 176kts
20-Feb-19 14:53 32.689095 -116.984520 278 3445ft 110kts
20-Feb-19 14:54 32.696463 -117.021222 271 2707ft 118kts
20-Feb-19 14:55 32.700784 -117.061830 282 2101ft 128kts
20-Feb-19 14:56 32.713365 -117.105750 282 1674ft 138kts
20-Feb-19 14:57 32.724120 -117.149516 279 838ft 124kts
20-Feb-19 14:57 32.731899 -117.181474 282 376ft 106kts
20-Feb-19 14:59 32.713136 -117.210534 196 126ft 93kts
20-Feb-19 15:00 32.700565 -117.213325 13 19ft 0kts

Navigation Log

Ident Type
Flight plan parsing failed, navigation log unavailable